WMT9YD LIMC-UDYZ
Flight info
| Callsign | WMT9YD |
|---|---|
| Flight time | 3h 43m |
| Altitude | 33000 |
| Route | VAKON DCT OTKEK DCT LABIN DCT ELTIB DCT NISVA/N0452F350 Q13 UDROS UM859 KARDE UL851 TBN UP146 YAVUZ/N0421F270 B374 INDUR |
| Aircraft | A321/M-SDE3FGHIRWY/LB1 |
Departure
| Time | 2026-05-08 19:47 |
|---|---|
| Airport | Milan Malpensa International Airport (LIMC) |
Arrival
| Time | 2026-05-08 23:31 |
|---|---|
| Airport | Zvartnots International Airport (UDYZ) |
| Time | Latitude | Longitude | Altitude | Speed | Heading |
|---|---|---|---|---|---|
| 2026-05-08 19:07 | 45.63083 | 8.71822 | 717 ft | 0 kts | 79° |
| 2026-05-08 19:37 | 45.63083 | 8.71823 | 716 ft | 1 kts | 79° |
| 2026-05-08 19:37 | 45.63089 | 8.71869 | 725 ft | 9 kts | 80° |
| 2026-05-08 19:37 | 45.63029 | 8.71928 | 719 ft | 15 kts | 169° |
| 2026-05-08 19:38 | 45.62925 | 8.71957 | 718 ft | 15 kts | 169° |
| 2026-05-08 19:38 | 45.62819 | 8.71986 | 718 ft | 16 kts | 169° |
| 2026-05-08 19:38 | 45.62710 | 8.72017 | 716 ft | 16 kts | 169° |
| 2026-05-08 19:38 | 45.62601 | 8.72047 | 718 ft | 14 kts | 169° |
| 2026-05-08 19:39 | 45.62507 | 8.72073 | 718 ft | 14 kts | 169° |
| 2026-05-08 19:39 | 45.62409 | 8.72100 | 719 ft | 15 kts | 169° |
| 2026-05-08 19:39 | 45.62308 | 8.72128 | 719 ft | 15 kts | 168° |
| 2026-05-08 19:39 | 45.62206 | 8.72157 | 718 ft | 15 kts | 169° |
| 2026-05-08 19:40 | 45.62100 | 8.72186 | 719 ft | 16 kts | 169° |
| 2026-05-08 19:40 | 45.61993 | 8.72214 | 716 ft | 16 kts | 169° |
| 2026-05-08 19:40 | 45.61883 | 8.72244 | 718 ft | 16 kts | 169° |
| 2026-05-08 19:40 | 45.61772 | 8.72275 | 720 ft | 17 kts | 169° |
| 2026-05-08 19:41 | 45.61658 | 8.72307 | 717 ft | 17 kts | 169° |
| 2026-05-08 19:41 | 45.61541 | 8.72340 | 720 ft | 17 kts | 169° |
| 2026-05-08 19:41 | 45.61424 | 8.72378 | 720 ft | 17 kts | 153° |
| 2026-05-08 19:41 | 45.61335 | 8.72495 | 716 ft | 17 kts | 140° |
| 2026-05-08 19:42 | 45.61219 | 8.72540 | 717 ft | 18 kts | 169° |
| 2026-05-08 19:42 | 45.61092 | 8.72595 | 712 ft | 20 kts | 132° |
| 2026-05-08 19:42 | 45.61094 | 8.72771 | 716 ft | 17 kts | 80° |
| 2026-05-08 19:42 | 45.61116 | 8.72935 | 717 ft | 17 kts | 79° |
| 2026-05-08 19:43 | 45.61160 | 8.73076 | 718 ft | 15 kts | 39° |
| 2026-05-08 19:43 | 45.61249 | 8.73161 | 718 ft | 16 kts | 33° |
| 2026-05-08 19:43 | 45.61341 | 8.73248 | 721 ft | 16 kts | 32° |
| 2026-05-08 19:43 | 45.61448 | 8.73257 | 719 ft | 16 kts | 348° |
| 2026-05-08 19:44 | 45.61560 | 8.73227 | 717 ft | 17 kts | 350° |
| 2026-05-08 19:44 | 45.61627 | 8.73327 | 718 ft | 16 kts | 79° |
| 2026-05-08 19:44 | 45.61631 | 8.73437 | 719 ft | 0 kts | 109° |
| 2026-05-08 19:44 | 45.61629 | 8.73442 | 719 ft | 2 kts | 109° |
| 2026-05-08 19:45 | 45.61609 | 8.73492 | 722 ft | 8 kts | 122° |
| 2026-05-08 19:45 | 45.61588 | 8.73570 | 718 ft | 9 kts | 99° |
| 2026-05-08 19:45 | 45.61592 | 8.73662 | 719 ft | 10 kts | 78° |
| 2026-05-08 19:45 | 45.61634 | 8.73738 | 717 ft | 10 kts | 10° |
| 2026-05-08 19:46 | 45.61679 | 8.73725 | 719 ft | 0 kts | 349° |
| 2026-05-08 19:46 | 45.61680 | 8.73725 | 716 ft | 0 kts | 349° |
| 2026-05-08 19:46 | 45.61837 | 8.73681 | 717 ft | 55 kts | 349° |
| 2026-05-08 19:47 | 45.62424 | 8.73518 | 722 ft | 117 kts | 349° |
| 2026-05-08 19:47 | 45.63406 | 8.73248 | 718 ft | 168 kts | 349° |
| 2026-05-08 19:47 | 45.64584 | 8.72924 | 1277 ft | 169 kts | 349° |
| 2026-05-08 19:47 | 45.65734 | 8.73002 | 1928 ft | 171 kts | 29° |
| 2026-05-08 19:48 | 45.66556 | 8.74207 | 2533 ft | 172 kts | 59° |
| 2026-05-08 19:48 | 45.67019 | 8.75817 | 2908 ft | 180 kts | 75° |
| 2026-05-08 19:48 | 45.67488 | 8.77514 | 3199 ft | 192 kts | 51° |
| 2026-05-08 19:48 | 45.68533 | 8.78757 | 3527 ft | 199 kts | 35° |
| 2026-05-08 19:49 | 45.69648 | 8.79957 | 3810 ft | 209 kts | 38° |
| 2026-05-08 19:49 | 45.70801 | 8.81264 | 4157 ft | 213 kts | 39° |
| 2026-05-08 19:49 | 45.71922 | 8.82658 | 4558 ft | 215 kts | 50° |
| 2026-05-08 19:49 | 45.72541 | 8.84591 | 4988 ft | 217 kts | 83° |
| 2026-05-08 19:50 | 45.72365 | 8.86775 | 5209 ft | 233 kts | 117° |
| 2026-05-08 19:50 | 45.71503 | 8.88709 | 5579 ft | 235 kts | 126° |
| 2026-05-08 19:50 | 45.70531 | 8.90623 | 6061 ft | 239 kts | 127° |
| 2026-05-08 19:50 | 45.69535 | 8.92543 | 6601 ft | 241 kts | 127° |
| 2026-05-08 19:51 | 45.68544 | 8.94451 | 7099 ft | 243 kts | 127° |
| 2026-05-08 19:51 | 45.67536 | 8.96405 | 7601 ft | 245 kts | 127° |
| 2026-05-08 19:51 | 45.66523 | 8.98378 | 8107 ft | 247 kts | 127° |
| 2026-05-08 19:51 | 45.65506 | 9.00369 | 8620 ft | 249 kts | 127° |
| 2026-05-08 19:52 | 45.64609 | 9.02501 | 9095 ft | 254 kts | 113° |
| 2026-05-08 19:52 | 45.64068 | 9.04997 | 9308 ft | 275 kts | 105° |
| 2026-05-08 19:52 | 45.63592 | 9.07716 | 9648 ft | 287 kts | 104° |
| 2026-05-08 19:52 | 45.63108 | 9.10503 | 10180 ft | 293 kts | 104° |
| 2026-05-08 19:53 | 45.62598 | 9.13424 | 10327 ft | 313 kts | 104° |
| 2026-05-08 19:53 | 45.62048 | 9.16537 | 10464 ft | 333 kts | 104° |
| 2026-05-08 19:53 | 45.61472 | 9.19775 | 10740 ft | 345 kts | 105° |
| 2026-05-08 19:53 | 45.60876 | 9.23117 | 11251 ft | 350 kts | 104° |
| 2026-05-08 19:54 | 45.60272 | 9.26503 | 11813 ft | 353 kts | 104° |
| 2026-05-08 19:54 | 45.59661 | 9.29921 | 12370 ft | 357 kts | 104° |
| 2026-05-08 19:54 | 45.59043 | 9.33362 | 12932 ft | 360 kts | 104° |
| 2026-05-08 19:54 | 45.58417 | 9.36838 | 13476 ft | 364 kts | 104° |
| 2026-05-08 19:55 | 45.57788 | 9.40354 | 14045 ft | 367 kts | 104° |
| 2026-05-08 19:55 | 45.57154 | 9.43890 | 14555 ft | 369 kts | 104° |
| 2026-05-08 19:55 | 45.56511 | 9.47451 | 15077 ft | 372 kts | 104° |
| 2026-05-08 19:55 | 45.55862 | 9.51041 | 15584 ft | 375 kts | 104° |
| 2026-05-08 19:56 | 45.55241 | 9.54620 | 16083 ft | 378 kts | 104° |
| 2026-05-08 19:56 | 45.54639 | 9.58283 | 16588 ft | 381 kts | 103° |
| 2026-05-08 19:56 | 45.54047 | 9.61987 | 17086 ft | 384 kts | 103° |
| 2026-05-08 19:56 | 45.53454 | 9.65716 | 17573 ft | 388 kts | 103° |
| 2026-05-08 19:57 | 45.52850 | 9.69480 | 18063 ft | 391 kts | 103° |
| 2026-05-08 19:57 | 45.52235 | 9.73267 | 18514 ft | 394 kts | 103° |
| 2026-05-08 19:57 | 45.51605 | 9.77085 | 18945 ft | 397 kts | 103° |
| 2026-05-08 19:57 | 45.50967 | 9.80931 | 19344 ft | 400 kts | 103° |
| 2026-05-08 19:58 | 45.50333 | 9.84753 | 19754 ft | 403 kts | 103° |
| 2026-05-08 19:58 | 45.49688 | 9.88656 | 20168 ft | 406 kts | 103° |
| 2026-05-08 19:58 | 45.49036 | 9.92599 | 20592 ft | 410 kts | 103° |
| 2026-05-08 19:58 | 45.48377 | 9.96559 | 20986 ft | 413 kts | 103° |
| 2026-05-08 19:59 | 45.47712 | 10.00557 | 21399 ft | 416 kts | 103° |
| 2026-05-08 19:59 | 45.47039 | 10.04581 | 21795 ft | 419 kts | 103° |
| 2026-05-08 19:59 | 45.46359 | 10.08631 | 22187 ft | 422 kts | 103° |
| 2026-05-08 19:59 | 45.45672 | 10.12709 | 22563 ft | 425 kts | 103° |
| 2026-05-08 20:00 | 45.44981 | 10.16816 | 22926 ft | 429 kts | 103° |
| 2026-05-08 20:00 | 45.44294 | 10.20908 | 23270 ft | 432 kts | 103° |
| 2026-05-08 20:00 | 45.43590 | 10.25078 | 23628 ft | 435 kts | 103° |
| 2026-05-08 20:00 | 45.42878 | 10.29280 | 23910 ft | 438 kts | 103° |
| 2026-05-08 20:01 | 45.42156 | 10.33506 | 24239 ft | 441 kts | 103° |
| 2026-05-08 20:01 | 45.41424 | 10.37755 | 24545 ft | 444 kts | 103° |
| 2026-05-08 20:01 | 45.40687 | 10.42033 | 24828 ft | 447 kts | 103° |
| 2026-05-08 20:01 | 45.39945 | 10.46342 | 25105 ft | 449 kts | 103° |
| 2026-05-08 20:02 | 45.39200 | 10.50672 | 25377 ft | 452 kts | 103° |
| 2026-05-08 20:02 | 45.38449 | 10.55038 | 25641 ft | 455 kts | 103° |
| 2026-05-08 20:02 | 45.37701 | 10.59362 | 25905 ft | 458 kts | 103° |
| 2026-05-08 20:02 | 45.36936 | 10.63773 | 26173 ft | 461 kts | 103° |
| 2026-05-08 20:03 | 45.36190 | 10.68214 | 26445 ft | 463 kts | 102° |
| 2026-05-08 20:03 | 45.35508 | 10.72710 | 26712 ft | 466 kts | 101° |
| 2026-05-08 20:03 | 45.34872 | 10.77237 | 26987 ft | 469 kts | 100° |
| 2026-05-08 20:03 | 45.34250 | 10.81800 | 27225 ft | 471 kts | 100° |
| 2026-05-08 20:04 | 45.33618 | 10.86382 | 27484 ft | 474 kts | 100° |
| 2026-05-08 20:04 | 45.32966 | 10.90980 | 27748 ft | 476 kts | 101° |
| 2026-05-08 20:04 | 45.32299 | 10.95544 | 28000 ft | 479 kts | 101° |
| 2026-05-08 20:04 | 45.31611 | 11.00176 | 28247 ft | 481 kts | 101° |
| 2026-05-08 20:05 | 45.30912 | 11.04837 | 28485 ft | 483 kts | 101° |
| 2026-05-08 20:05 | 45.30207 | 11.09520 | 28695 ft | 486 kts | 101° |
| 2026-05-08 20:05 | 45.29503 | 11.14218 | 28930 ft | 488 kts | 101° |
| 2026-05-08 20:05 | 45.28797 | 11.18945 | 29158 ft | 490 kts | 101° |
| 2026-05-08 20:06 | 45.28087 | 11.23693 | 29395 ft | 493 kts | 101° |
| 2026-05-08 20:06 | 45.27373 | 11.28461 | 29646 ft | 495 kts | 101° |
| 2026-05-08 20:06 | 45.26653 | 11.33252 | 29878 ft | 497 kts | 101° |
| 2026-05-08 20:06 | 45.25936 | 11.38000 | 30107 ft | 500 kts | 101° |
| 2026-05-08 20:07 | 45.25202 | 11.42829 | 30299 ft | 502 kts | 101° |
| 2026-05-08 20:07 | 45.24460 | 11.47680 | 30485 ft | 504 kts | 101° |
| 2026-05-08 20:07 | 45.23713 | 11.52551 | 30709 ft | 505 kts | 101° |
| 2026-05-08 20:07 | 45.22965 | 11.57419 | 30971 ft | 505 kts | 101° |
| 2026-05-08 20:08 | 45.22217 | 11.62290 | 31223 ft | 506 kts | 102° |
| 2026-05-08 20:08 | 45.21470 | 11.67156 | 31525 ft | 504 kts | 102° |
| 2026-05-08 20:08 | 45.20731 | 11.71948 | 31792 ft | 504 kts | 102° |
| 2026-05-08 20:08 | 45.19978 | 11.76804 | 32033 ft | 505 kts | 102° |
| 2026-05-08 20:09 | 45.19223 | 11.81665 | 32265 ft | 505 kts | 102° |
| 2026-05-08 20:09 | 45.18466 | 11.86529 | 32502 ft | 506 kts | 102° |
| 2026-05-08 20:09 | 45.17703 | 11.91399 | 32712 ft | 506 kts | 102° |
| 2026-05-08 20:09 | 45.16936 | 11.96269 | 32931 ft | 507 kts | 102° |
| 2026-05-08 20:10 | 45.16167 | 12.01145 | 33052 ft | 505 kts | 102° |
| 2026-05-08 20:10 | 45.15406 | 12.05958 | 33073 ft | 497 kts | 102° |
| 2026-05-08 20:10 | 45.13903 | 12.15448 | 33056 ft | 493 kts | 102° |
| 2026-05-08 20:11 | 45.12411 | 12.24838 | 33055 ft | 492 kts | 103° |
| 2026-05-08 20:11 | 45.10895 | 12.34283 | 33045 ft | 492 kts | 103° |
| 2026-05-08 20:12 | 45.09369 | 12.43704 | 33035 ft | 490 kts | 103° |
| 2026-05-08 20:12 | 45.07841 | 12.53114 | 33042 ft | 491 kts | 103° |
| 2026-05-08 20:13 | 45.06325 | 12.62389 | 33050 ft | 492 kts | 103° |
| 2026-05-08 20:13 | 45.04783 | 12.71827 | 33059 ft | 493 kts | 103° |
| 2026-05-08 20:14 | 45.03233 | 12.81274 | 33087 ft | 493 kts | 103° |
| 2026-05-08 20:14 | 45.01668 | 12.90696 | 33095 ft | 492 kts | 103° |
| 2026-05-08 20:15 | 45.00106 | 13.00041 | 33102 ft | 492 kts | 103° |
| 2026-05-08 20:15 | 44.98532 | 13.09443 | 33091 ft | 492 kts | 103° |
| 2026-05-08 20:16 | 44.96973 | 13.18836 | 33099 ft | 491 kts | 104° |
| 2026-05-08 20:16 | 44.95423 | 13.28206 | 33098 ft | 490 kts | 104° |
| 2026-05-08 20:17 | 44.93878 | 13.37508 | 33096 ft | 489 kts | 104° |
| 2026-05-08 20:17 | 44.92309 | 13.46847 | 33095 ft | 489 kts | 104° |
| 2026-05-08 20:18 | 44.90726 | 13.56173 | 33107 ft | 488 kts | 104° |
| 2026-05-08 20:18 | 44.89413 | 13.63891 | 33108 ft | 486 kts | 104° |
| 2026-05-08 20:19 | 44.87574 | 13.74650 | 33106 ft | 485 kts | 104° |
| 2026-05-08 20:19 | 44.85984 | 13.83895 | 33106 ft | 485 kts | 105° |
| 2026-05-08 20:20 | 44.84669 | 13.91564 | 33111 ft | 484 kts | 105° |
| 2026-05-08 20:20 | 44.83079 | 14.00756 | 33109 ft | 482 kts | 105° |
| 2026-05-08 20:21 | 44.81213 | 14.11410 | 33092 ft | 482 kts | 105° |
| 2026-05-08 20:21 | 44.79609 | 14.20563 | 33080 ft | 481 kts | 105° |
| 2026-05-08 20:22 | 44.78273 | 14.28158 | 33086 ft | 480 kts | 105° |
| 2026-05-08 20:22 | 44.76661 | 14.37272 | 33089 ft | 480 kts | 105° |
| 2026-05-08 20:23 | 44.74784 | 14.47850 | 33085 ft | 479 kts | 105° |
| 2026-05-08 20:23 | 44.73427 | 14.55462 | 33086 ft | 479 kts | 105° |
| 2026-05-08 20:24 | 44.71807 | 14.64467 | 33098 ft | 477 kts | 106° |
| 2026-05-08 20:24 | 44.70174 | 14.73486 | 33102 ft | 475 kts | 106° |
| 2026-05-08 20:25 | 44.68545 | 14.82479 | 33096 ft | 474 kts | 106° |
| 2026-05-08 20:25 | 44.66903 | 14.91449 | 33093 ft | 474 kts | 106° |
| 2026-05-08 20:26 | 44.65269 | 15.00357 | 33098 ft | 474 kts | 106° |
| 2026-05-08 20:26 | 44.63628 | 15.09311 | 33097 ft | 473 kts | 106° |
| 2026-05-08 20:27 | 44.61979 | 15.18256 | 33091 ft | 473 kts | 106° |
| 2026-05-08 20:27 | 44.60320 | 15.27192 | 33086 ft | 473 kts | 107° |
| 2026-05-08 20:28 | 44.58667 | 15.36058 | 33097 ft | 472 kts | 107° |
| 2026-05-08 20:28 | 44.56994 | 15.44959 | 33105 ft | 472 kts | 107° |
| 2026-05-08 20:29 | 44.55316 | 15.53844 | 33105 ft | 471 kts | 107° |
| 2026-05-08 20:29 | 44.53640 | 15.62729 | 33098 ft | 471 kts | 107° |
| 2026-05-08 20:30 | 44.51957 | 15.71587 | 33109 ft | 470 kts | 107° |
| 2026-05-08 20:30 | 44.50263 | 15.80420 | 33110 ft | 469 kts | 107° |
| 2026-05-08 20:31 | 44.48574 | 15.89171 | 33103 ft | 468 kts | 107° |
| 2026-05-08 20:31 | 44.46876 | 15.97977 | 33096 ft | 468 kts | 107° |
| 2026-05-08 20:32 | 44.45178 | 16.06757 | 33108 ft | 466 kts | 107° |
| 2026-05-08 20:32 | 44.43484 | 16.15498 | 33109 ft | 465 kts | 107° |
| 2026-05-08 20:33 | 44.41790 | 16.24165 | 33109 ft | 464 kts | 107° |
| 2026-05-08 20:33 | 44.40075 | 16.32862 | 33099 ft | 464 kts | 107° |
| 2026-05-08 20:34 | 44.38361 | 16.41546 | 33094 ft | 463 kts | 107° |
| 2026-05-08 20:35 | 44.35800 | 16.54517 | 33091 ft | 464 kts | 107° |
| 2026-05-08 20:35 | 44.34069 | 16.63198 | 33092 ft | 464 kts | 107° |
| 2026-05-08 20:36 | 44.32336 | 16.71878 | 33093 ft | 464 kts | 107° |
| 2026-05-08 20:36 | 44.30591 | 16.80542 | 33097 ft | 463 kts | 108° |
| 2026-05-08 20:37 | 44.28871 | 16.89207 | 33105 ft | 463 kts | 107° |
| 2026-05-08 20:37 | 44.27214 | 16.97838 | 33105 ft | 463 kts | 107° |
| 2026-05-08 20:38 | 44.25558 | 17.06511 | 33104 ft | 463 kts | 107° |
| 2026-05-08 20:38 | 44.23877 | 17.15165 | 33107 ft | 462 kts | 107° |
| 2026-05-08 20:39 | 44.22195 | 17.23738 | 33106 ft | 461 kts | 107° |
| 2026-05-08 20:39 | 44.20500 | 17.32352 | 33104 ft | 461 kts | 107° |
| 2026-05-08 20:40 | 44.18806 | 17.40967 | 33098 ft | 460 kts | 107° |
| 2026-05-08 20:40 | 44.17099 | 17.49545 | 33101 ft | 459 kts | 107° |
| 2026-05-08 20:41 | 44.15393 | 17.58097 | 33100 ft | 458 kts | 107° |
| 2026-05-08 20:41 | 44.13688 | 17.66633 | 33089 ft | 457 kts | 107° |
| 2026-05-08 20:42 | 44.11990 | 17.75092 | 33088 ft | 457 kts | 107° |
| 2026-05-08 20:42 | 44.10278 | 17.83586 | 33083 ft | 455 kts | 107° |
| 2026-05-08 20:43 | 44.08564 | 17.92053 | 33079 ft | 455 kts | 108° |
| 2026-05-08 20:43 | 44.06839 | 18.00510 | 33078 ft | 454 kts | 108° |
| 2026-05-08 20:44 | 44.05130 | 18.08889 | 33084 ft | 453 kts | 108° |
| 2026-05-08 20:44 | 44.03405 | 18.17308 | 33094 ft | 452 kts | 108° |
| 2026-05-08 20:45 | 44.01679 | 18.25696 | 33091 ft | 451 kts | 108° |
| 2026-05-08 20:45 | 43.99950 | 18.34073 | 33095 ft | 451 kts | 108° |
| 2026-05-08 20:46 | 43.98222 | 18.42373 | 33093 ft | 450 kts | 108° |
| 2026-05-08 20:46 | 43.96476 | 18.50719 | 33090 ft | 450 kts | 108° |
| 2026-05-08 20:47 | 43.94733 | 18.59059 | 33090 ft | 450 kts | 108° |
| 2026-05-08 20:47 | 43.92980 | 18.67396 | 33081 ft | 450 kts | 108° |
| 2026-05-08 20:48 | 43.91237 | 18.75668 | 33064 ft | 450 kts | 108° |
| 2026-05-08 20:48 | 43.89474 | 18.83993 | 33068 ft | 450 kts | 109° |
| 2026-05-08 20:49 | 43.87701 | 18.92313 | 33069 ft | 450 kts | 109° |
| 2026-05-08 20:49 | 43.85918 | 19.00629 | 33072 ft | 450 kts | 109° |
| 2026-05-08 20:50 | 43.84151 | 19.08887 | 33065 ft | 450 kts | 109° |
| 2026-05-08 20:50 | 43.82363 | 19.17201 | 33072 ft | 450 kts | 109° |
| 2026-05-08 20:51 | 43.80568 | 19.25508 | 33078 ft | 450 kts | 109° |
| 2026-05-08 20:51 | 43.78761 | 19.33812 | 33068 ft | 451 kts | 109° |
| 2026-05-08 20:52 | 43.76956 | 19.42115 | 33074 ft | 450 kts | 109° |
| 2026-05-08 20:52 | 43.75156 | 19.50352 | 33065 ft | 450 kts | 109° |
| 2026-05-08 20:53 | 43.73334 | 19.58641 | 33085 ft | 450 kts | 109° |
| 2026-05-08 20:53 | 43.71501 | 19.66927 | 33079 ft | 451 kts | 109° |
| 2026-05-08 20:54 | 43.69682 | 19.75153 | 33081 ft | 451 kts | 109° |
| 2026-05-08 20:54 | 43.67853 | 19.83435 | 33085 ft | 451 kts | 109° |
| 2026-05-08 20:55 | 43.66009 | 19.91705 | 33086 ft | 450 kts | 109° |
| 2026-05-08 20:55 | 43.64157 | 19.99971 | 33090 ft | 451 kts | 109° |
| 2026-05-08 20:56 | 43.62297 | 20.08229 | 33088 ft | 451 kts | 109° |
| 2026-05-08 20:56 | 43.60447 | 20.16430 | 33089 ft | 451 kts | 109° |
| 2026-05-08 20:57 | 43.58577 | 20.24693 | 33089 ft | 451 kts | 109° |
| 2026-05-08 20:57 | 43.56706 | 20.32955 | 33087 ft | 451 kts | 109° |
| 2026-05-08 20:58 | 43.54825 | 20.41206 | 33084 ft | 451 kts | 109° |
| 2026-05-08 20:58 | 43.52942 | 20.49387 | 33085 ft | 451 kts | 109° |
| 2026-05-08 20:59 | 43.51042 | 20.57621 | 33086 ft | 451 kts | 109° |
| 2026-05-08 20:59 | 43.49142 | 20.65855 | 33088 ft | 451 kts | 109° |
| 2026-05-08 21:00 | 43.47239 | 20.74076 | 33088 ft | 451 kts | 109° |
| 2026-05-08 21:00 | 43.45345 | 20.82235 | 33084 ft | 451 kts | 109° |
| 2026-05-08 21:01 | 43.43435 | 20.90441 | 33087 ft | 451 kts | 109° |
| 2026-05-08 21:01 | 43.41513 | 20.98645 | 33089 ft | 450 kts | 109° |
| 2026-05-08 21:02 | 43.39591 | 21.06842 | 33080 ft | 450 kts | 109° |
| 2026-05-08 21:02 | 43.37670 | 21.14984 | 33075 ft | 451 kts | 109° |
| 2026-05-08 21:03 | 43.35726 | 21.23184 | 33077 ft | 452 kts | 109° |
| 2026-05-08 21:03 | 43.33767 | 21.31392 | 33076 ft | 452 kts | 109° |
| 2026-05-08 21:04 | 43.31811 | 21.39598 | 33079 ft | 452 kts | 109° |
| 2026-05-08 21:04 | 43.29848 | 21.47809 | 33085 ft | 453 kts | 109° |
| 2026-05-08 21:05 | 43.27888 | 21.55954 | 33088 ft | 453 kts | 109° |
| 2026-05-08 21:05 | 43.25915 | 21.64156 | 33088 ft | 453 kts | 109° |
| 2026-05-08 21:06 | 43.23935 | 21.72352 | 33091 ft | 453 kts | 110° |
| 2026-05-08 21:06 | 43.21959 | 21.80490 | 33090 ft | 453 kts | 110° |
| 2026-05-08 21:07 | 43.19967 | 21.88673 | 33090 ft | 453 kts | 110° |
| 2026-05-08 21:07 | 43.17960 | 21.96853 | 33074 ft | 453 kts | 110° |
| 2026-05-08 21:08 | 43.15947 | 22.05032 | 33072 ft | 453 kts | 110° |
| 2026-05-08 21:08 | 43.13936 | 22.13203 | 33084 ft | 453 kts | 110° |
| 2026-05-08 21:09 | 43.11934 | 22.21315 | 33091 ft | 453 kts | 110° |
| 2026-05-08 21:09 | 43.09910 | 22.29477 | 33096 ft | 453 kts | 110° |
| 2026-05-08 21:10 | 43.07876 | 22.37623 | 33091 ft | 453 kts | 110° |
| 2026-05-08 21:10 | 43.05840 | 22.45773 | 33093 ft | 453 kts | 110° |
| 2026-05-08 21:11 | 43.03812 | 22.53859 | 33092 ft | 453 kts | 110° |
| 2026-05-08 21:11 | 43.01771 | 22.61991 | 33092 ft | 452 kts | 110° |
| 2026-05-08 21:12 | 42.99714 | 22.70113 | 33093 ft | 452 kts | 110° |
| 2026-05-08 21:12 | 42.97779 | 22.78291 | 33090 ft | 453 kts | 102° |
| 2026-05-08 21:13 | 42.97317 | 22.86788 | 33090 ft | 453 kts | 89° |
| 2026-05-08 21:13 | 42.97377 | 22.95388 | 33086 ft | 453 kts | 90° |
| 2026-05-08 21:14 | 42.97399 | 23.04000 | 33086 ft | 454 kts | 90° |
| 2026-05-08 21:14 | 42.97420 | 23.12612 | 33082 ft | 454 kts | 90° |
| 2026-05-08 21:15 | 42.97437 | 23.21173 | 33084 ft | 454 kts | 90° |
| 2026-05-08 21:15 | 42.97455 | 23.29776 | 33087 ft | 453 kts | 90° |
| 2026-05-08 21:16 | 42.97464 | 23.38364 | 33088 ft | 452 kts | 90° |
| 2026-05-08 21:16 | 42.97470 | 23.46940 | 33084 ft | 451 kts | 90° |
| 2026-05-08 21:17 | 42.97464 | 23.55450 | 33078 ft | 451 kts | 90° |
| 2026-05-08 21:17 | 42.97452 | 23.64005 | 33075 ft | 450 kts | 90° |
| 2026-05-08 21:18 | 42.97431 | 23.72553 | 33071 ft | 450 kts | 90° |
| 2026-05-08 21:18 | 42.97406 | 23.81103 | 33067 ft | 450 kts | 90° |
| 2026-05-08 21:19 | 42.97377 | 23.89594 | 33074 ft | 450 kts | 90° |
| 2026-05-08 21:19 | 42.97342 | 23.98123 | 33070 ft | 449 kts | 91° |
| 2026-05-08 21:20 | 42.97301 | 24.06654 | 33068 ft | 449 kts | 91° |
| 2026-05-08 21:20 | 42.97251 | 24.15174 | 33077 ft | 449 kts | 91° |
| 2026-05-08 21:21 | 42.97201 | 24.23626 | 33075 ft | 447 kts | 91° |
| 2026-05-08 21:21 | 42.97143 | 24.32101 | 33072 ft | 446 kts | 91° |
| 2026-05-08 21:22 | 42.97069 | 24.40559 | 33071 ft | 445 kts | 91° |
| 2026-05-08 21:22 | 42.96992 | 24.48992 | 33060 ft | 444 kts | 91° |
| 2026-05-08 21:23 | 42.96912 | 24.57369 | 33061 ft | 444 kts | 91° |
| 2026-05-08 21:23 | 42.96824 | 24.65789 | 33068 ft | 443 kts | 92° |
| 2026-05-08 21:24 | 42.96735 | 24.74184 | 33056 ft | 442 kts | 92° |
| 2026-05-08 21:24 | 42.96642 | 24.82573 | 33066 ft | 442 kts | 92° |
| 2026-05-08 21:25 | 42.96538 | 24.90896 | 33064 ft | 441 kts | 92° |
| 2026-05-08 21:25 | 42.96429 | 24.99268 | 33062 ft | 441 kts | 92° |
| 2026-05-08 21:26 | 42.96310 | 25.07634 | 33063 ft | 440 kts | 92° |
| 2026-05-08 21:26 | 42.96191 | 25.15991 | 33069 ft | 440 kts | 92° |
| 2026-05-08 21:27 | 42.96070 | 25.24349 | 33064 ft | 440 kts | 92° |
| 2026-05-08 21:27 | 42.95937 | 25.32639 | 33063 ft | 440 kts | 92° |
| 2026-05-08 21:28 | 42.95794 | 25.40989 | 33053 ft | 440 kts | 92° |
| 2026-05-08 21:28 | 42.95650 | 25.49333 | 33057 ft | 440 kts | 92° |
| 2026-05-08 21:29 | 42.95498 | 25.57684 | 33057 ft | 440 kts | 92° |
| 2026-05-08 21:29 | 42.95341 | 25.65970 | 33055 ft | 440 kts | 92° |
| 2026-05-08 21:30 | 42.95174 | 25.74316 | 33050 ft | 440 kts | 92° |
| 2026-05-08 21:30 | 42.95002 | 25.82651 | 33061 ft | 439 kts | 92° |
| 2026-05-08 21:31 | 42.94830 | 25.90973 | 33060 ft | 438 kts | 93° |
| 2026-05-08 21:31 | 42.94649 | 25.99279 | 33073 ft | 437 kts | 93° |
| 2026-05-08 21:32 | 42.94467 | 26.07519 | 33078 ft | 437 kts | 93° |
| 2026-05-08 21:32 | 42.94277 | 26.15807 | 33079 ft | 437 kts | 93° |
| 2026-05-08 21:33 | 42.94078 | 26.24086 | 33087 ft | 436 kts | 93° |
| 2026-05-08 21:33 | 42.93871 | 26.32289 | 33085 ft | 435 kts | 93° |
| 2026-05-08 21:34 | 42.93658 | 26.40542 | 33088 ft | 435 kts | 93° |
| 2026-05-08 21:34 | 42.93446 | 26.48789 | 33083 ft | 435 kts | 93° |
| 2026-05-08 21:35 | 42.93228 | 26.57026 | 33092 ft | 434 kts | 94° |
| 2026-05-08 21:35 | 42.93000 | 26.65258 | 33091 ft | 434 kts | 94° |
| 2026-05-08 21:36 | 42.92767 | 26.73423 | 33098 ft | 434 kts | 94° |
| 2026-05-08 21:36 | 42.92528 | 26.81646 | 33074 ft | 434 kts | 94° |
| 2026-05-08 21:37 | 42.92279 | 26.89875 | 33086 ft | 434 kts | 94° |
| 2026-05-08 21:37 | 42.92030 | 26.98112 | 33088 ft | 435 kts | 94° |
| 2026-05-08 21:38 | 42.91779 | 27.06310 | 33091 ft | 436 kts | 94° |
| 2026-05-08 21:38 | 42.91513 | 27.14563 | 33093 ft | 436 kts | 94° |
| 2026-05-08 21:39 | 42.91244 | 27.22821 | 33094 ft | 435 kts | 94° |
| 2026-05-08 21:39 | 42.90965 | 27.31076 | 33092 ft | 435 kts | 94° |
| 2026-05-08 21:40 | 42.90688 | 27.39261 | 33087 ft | 435 kts | 94° |
| 2026-05-08 21:40 | 42.90404 | 27.47501 | 33097 ft | 435 kts | 94° |
| 2026-05-08 21:41 | 42.89957 | 27.59845 | 33097 ft | 435 kts | 95° |
| 2026-05-08 21:41 | 42.89663 | 27.68032 | 33086 ft | 435 kts | 94° |
| 2026-05-08 21:42 | 42.89363 | 27.76274 | 33080 ft | 436 kts | 94° |
| 2026-05-08 21:42 | 42.89047 | 27.84529 | 33082 ft | 436 kts | 95° |
| 2026-05-08 21:43 | 42.88725 | 27.92783 | 33088 ft | 436 kts | 95° |
| 2026-05-08 21:43 | 42.88396 | 28.01049 | 33088 ft | 436 kts | 95° |
| 2026-05-08 21:44 | 42.88051 | 28.09247 | 33076 ft | 436 kts | 95° |
| 2026-05-08 21:44 | 42.87671 | 28.17493 | 33092 ft | 436 kts | 95° |
| 2026-05-08 21:45 | 42.87280 | 28.25732 | 33091 ft | 435 kts | 95° |
| 2026-05-08 21:45 | 42.86885 | 28.33973 | 33084 ft | 435 kts | 95° |
| 2026-05-08 21:46 | 42.86482 | 28.42201 | 33080 ft | 435 kts | 95° |
| 2026-05-08 21:46 | 42.86086 | 28.50373 | 33079 ft | 435 kts | 95° |
| 2026-05-08 21:47 | 42.85679 | 28.58615 | 33075 ft | 436 kts | 95° |
| 2026-05-08 21:47 | 42.85263 | 28.66872 | 33075 ft | 437 kts | 96° |
| 2026-05-08 21:48 | 42.84844 | 28.75149 | 33085 ft | 438 kts | 95° |
| 2026-05-08 21:48 | 42.84422 | 28.83383 | 33083 ft | 439 kts | 95° |
| 2026-05-08 21:49 | 42.83990 | 28.91674 | 33076 ft | 440 kts | 96° |
| 2026-05-08 21:49 | 42.83552 | 28.99992 | 33084 ft | 440 kts | 96° |
| 2026-05-08 21:50 | 42.83099 | 29.08308 | 33091 ft | 440 kts | 96° |
| 2026-05-08 21:50 | 42.82645 | 29.16576 | 33094 ft | 441 kts | 96° |
| 2026-05-08 21:51 | 42.82186 | 29.24896 | 33101 ft | 441 kts | 96° |
| 2026-05-08 21:51 | 42.81724 | 29.33217 | 33103 ft | 441 kts | 96° |
| 2026-05-08 21:52 | 42.81254 | 29.41539 | 33101 ft | 440 kts | 96° |
| 2026-05-08 21:52 | 42.80776 | 29.49796 | 33101 ft | 440 kts | 96° |
| 2026-05-08 21:53 | 42.80296 | 29.58105 | 33103 ft | 440 kts | 96° |
| 2026-05-08 21:53 | 42.79804 | 29.66412 | 33091 ft | 440 kts | 96° |
| 2026-05-08 21:54 | 42.79303 | 29.74724 | 33096 ft | 440 kts | 96° |
| 2026-05-08 21:54 | 42.78800 | 29.82976 | 33096 ft | 440 kts | 96° |
| 2026-05-08 21:55 | 42.78293 | 29.91277 | 33091 ft | 440 kts | 96° |
| 2026-05-08 21:56 | 42.77524 | 30.03737 | 33078 ft | 441 kts | 96° |
| 2026-05-08 21:56 | 42.77000 | 30.12050 | 33080 ft | 441 kts | 96° |
| 2026-05-08 21:57 | 42.76475 | 30.20321 | 33083 ft | 442 kts | 96° |
| 2026-05-08 21:57 | 42.75936 | 30.28649 | 33093 ft | 442 kts | 96° |
| 2026-05-08 21:58 | 42.75384 | 30.36985 | 33085 ft | 442 kts | 96° |
| 2026-05-08 21:58 | 42.74835 | 30.45334 | 33088 ft | 443 kts | 96° |
| 2026-05-08 21:59 | 42.74289 | 30.53637 | 33090 ft | 444 kts | 96° |
| 2026-05-08 21:59 | 42.73703 | 30.61996 | 33097 ft | 444 kts | 98° |
| 2026-05-08 22:00 | 42.72897 | 30.70325 | 33106 ft | 444 kts | 99° |
| 2026-05-08 22:00 | 42.71986 | 30.78632 | 33094 ft | 445 kts | 99° |
| 2026-05-08 22:01 | 42.71100 | 30.86956 | 33101 ft | 445 kts | 99° |
| 2026-05-08 22:01 | 42.70256 | 30.95247 | 33103 ft | 446 kts | 99° |
| 2026-05-08 22:02 | 42.69396 | 31.03588 | 33110 ft | 446 kts | 99° |
| 2026-05-08 22:02 | 42.68526 | 31.11935 | 33107 ft | 446 kts | 99° |
| 2026-05-08 22:03 | 42.67648 | 31.20282 | 33106 ft | 446 kts | 99° |
| 2026-05-08 22:03 | 42.66772 | 31.28580 | 33115 ft | 447 kts | 99° |
| 2026-05-08 22:04 | 42.65881 | 31.36934 | 33122 ft | 447 kts | 98° |
| 2026-05-08 22:04 | 42.64983 | 31.45280 | 33119 ft | 447 kts | 98° |
| 2026-05-08 22:05 | 42.64087 | 31.53632 | 33126 ft | 447 kts | 98° |
| 2026-05-08 22:05 | 42.63184 | 31.61919 | 33130 ft | 447 kts | 98° |
| 2026-05-08 22:06 | 42.62263 | 31.70261 | 33131 ft | 446 kts | 98° |
| 2026-05-08 22:06 | 42.61343 | 31.78588 | 33131 ft | 446 kts | 98° |
| 2026-05-08 22:07 | 42.60419 | 31.86917 | 33118 ft | 446 kts | 98° |
| 2026-05-08 22:07 | 42.59487 | 31.95247 | 33111 ft | 447 kts | 98° |
| 2026-05-08 22:08 | 42.58549 | 32.03521 | 33110 ft | 447 kts | 98° |
| 2026-05-08 22:08 | 42.57616 | 32.11856 | 33114 ft | 447 kts | 98° |
| 2026-05-08 22:09 | 42.56667 | 32.20195 | 33110 ft | 447 kts | 98° |
| 2026-05-08 22:09 | 42.55705 | 32.28545 | 33102 ft | 448 kts | 98° |
| 2026-05-08 22:10 | 42.54741 | 32.36848 | 33104 ft | 449 kts | 98° |
| 2026-05-08 22:10 | 42.53766 | 32.45226 | 33098 ft | 451 kts | 98° |
| 2026-05-08 22:11 | 42.52780 | 32.53643 | 33091 ft | 453 kts | 98° |
| 2026-05-08 22:11 | 42.51787 | 32.62082 | 33088 ft | 454 kts | 97° |
| 2026-05-08 22:12 | 42.50793 | 32.70486 | 33091 ft | 455 kts | 98° |
| 2026-05-08 22:12 | 42.49776 | 32.78965 | 33095 ft | 456 kts | 98° |
| 2026-05-08 22:13 | 42.48749 | 32.87451 | 33102 ft | 457 kts | 98° |
| 2026-05-08 22:13 | 42.47722 | 32.95942 | 33109 ft | 457 kts | 98° |
| 2026-05-08 22:14 | 42.46694 | 33.04390 | 33114 ft | 457 kts | 98° |
| 2026-05-08 22:14 | 42.45650 | 33.12885 | 33117 ft | 457 kts | 98° |
| 2026-05-08 22:15 | 42.44599 | 33.21384 | 33120 ft | 458 kts | 98° |
| 2026-05-08 22:15 | 42.43543 | 33.29880 | 33119 ft | 458 kts | 98° |
| 2026-05-08 22:16 | 42.42473 | 33.38389 | 33113 ft | 459 kts | 98° |
| 2026-05-08 22:16 | 42.41404 | 33.46843 | 33124 ft | 459 kts | 97° |
| 2026-05-08 22:17 | 42.40330 | 33.55354 | 33125 ft | 459 kts | 97° |
| 2026-05-08 22:17 | 42.39249 | 33.63868 | 33130 ft | 459 kts | 97° |
| 2026-05-08 22:18 | 42.38159 | 33.72393 | 33129 ft | 460 kts | 98° |
| 2026-05-08 22:18 | 42.37058 | 33.80911 | 33127 ft | 460 kts | 98° |
| 2026-05-08 22:19 | 42.35954 | 33.89376 | 33125 ft | 461 kts | 98° |
| 2026-05-08 22:19 | 42.34846 | 33.97909 | 33127 ft | 461 kts | 98° |
| 2026-05-08 22:20 | 42.33733 | 34.06437 | 33129 ft | 461 kts | 98° |
| 2026-05-08 22:20 | 42.32612 | 34.14964 | 33128 ft | 461 kts | 98° |
| 2026-05-08 22:21 | 42.31474 | 34.23485 | 33126 ft | 461 kts | 98° |
| 2026-05-08 22:21 | 42.30341 | 34.31952 | 33127 ft | 461 kts | 98° |
| 2026-05-08 22:22 | 42.29203 | 34.40480 | 33134 ft | 462 kts | 98° |
| 2026-05-08 22:22 | 42.28053 | 34.49006 | 33155 ft | 461 kts | 98° |
| 2026-05-08 22:23 | 42.26903 | 34.57514 | 33144 ft | 460 kts | 98° |
| 2026-05-08 22:23 | 42.25751 | 34.65952 | 33142 ft | 460 kts | 98° |
| 2026-05-08 22:24 | 42.24577 | 34.74429 | 33148 ft | 460 kts | 98° |
| 2026-05-08 22:24 | 42.23401 | 34.82909 | 33146 ft | 460 kts | 98° |
| 2026-05-08 22:25 | 42.22221 | 34.91386 | 33151 ft | 460 kts | 98° |
| 2026-05-08 22:25 | 42.21038 | 34.99862 | 33152 ft | 460 kts | 98° |
| 2026-05-08 22:26 | 42.19859 | 35.08277 | 33162 ft | 460 kts | 98° |
| 2026-05-08 22:26 | 42.18659 | 35.16734 | 33160 ft | 459 kts | 99° |
| 2026-05-08 22:27 | 42.17447 | 35.25186 | 33156 ft | 459 kts | 99° |
| 2026-05-08 22:27 | 42.16239 | 35.33627 | 33158 ft | 458 kts | 99° |
| 2026-05-08 22:28 | 42.15035 | 35.42002 | 33160 ft | 458 kts | 98° |
| 2026-05-08 22:28 | 42.13822 | 35.50433 | 33167 ft | 458 kts | 98° |
| 2026-05-08 22:29 | 42.12603 | 35.58850 | 33164 ft | 458 kts | 98° |
| 2026-05-08 22:29 | 42.11376 | 35.67270 | 33164 ft | 458 kts | 98° |
| 2026-05-08 22:30 | 42.10149 | 35.75618 | 33166 ft | 458 kts | 99° |
| 2026-05-08 22:30 | 42.08908 | 35.84015 | 33171 ft | 457 kts | 98° |
| 2026-05-08 22:31 | 42.07661 | 35.92409 | 33168 ft | 457 kts | 98° |
| 2026-05-08 22:31 | 42.06403 | 36.00791 | 33166 ft | 457 kts | 98° |
| 2026-05-08 22:32 | 42.05148 | 36.09165 | 33165 ft | 457 kts | 98° |
| 2026-05-08 22:32 | 42.03901 | 36.17485 | 33168 ft | 457 kts | 98° |
| 2026-05-08 22:33 | 42.02637 | 36.25865 | 33168 ft | 457 kts | 98° |
| 2026-05-08 22:33 | 42.01356 | 36.34239 | 33164 ft | 457 kts | 99° |
| 2026-05-08 22:34 | 42.00069 | 36.42621 | 33157 ft | 458 kts | 98° |
| 2026-05-08 22:34 | 41.98784 | 36.51003 | 33180 ft | 458 kts | 98° |
| 2026-05-08 22:35 | 41.97496 | 36.59334 | 33181 ft | 458 kts | 99° |
| 2026-05-08 22:35 | 41.96190 | 36.67719 | 33175 ft | 458 kts | 99° |
| 2026-05-08 22:36 | 41.94880 | 36.76095 | 33177 ft | 458 kts | 99° |
| 2026-05-08 22:36 | 41.93562 | 36.84466 | 33188 ft | 458 kts | 99° |
| 2026-05-08 22:37 | 41.92248 | 36.92784 | 33180 ft | 459 kts | 99° |
| 2026-05-08 22:37 | 41.90915 | 37.01159 | 33176 ft | 459 kts | 99° |
| 2026-05-08 22:38 | 41.88895 | 37.09302 | 33178 ft | 462 kts | 111° |
| 2026-05-08 22:38 | 41.86394 | 37.17244 | 33182 ft | 463 kts | 110° |
| 2026-05-08 22:39 | 41.83887 | 37.25201 | 33173 ft | 463 kts | 111° |
| 2026-05-08 22:39 | 41.81390 | 37.33101 | 33171 ft | 463 kts | 111° |
| 2026-05-08 22:40 | 41.78872 | 37.41054 | 33169 ft | 464 kts | 111° |
| 2026-05-08 22:40 | 41.76350 | 37.49004 | 33166 ft | 464 kts | 111° |
| 2026-05-08 22:41 | 41.73822 | 37.56957 | 33160 ft | 464 kts | 111° |
| 2026-05-08 22:41 | 41.71297 | 37.64840 | 33160 ft | 464 kts | 111° |
| 2026-05-08 22:42 | 41.68744 | 37.72782 | 33172 ft | 465 kts | 111° |
| 2026-05-08 22:42 | 41.66193 | 37.80728 | 33173 ft | 465 kts | 111° |
| 2026-05-08 22:43 | 41.63634 | 37.88676 | 33169 ft | 466 kts | 111° |
| 2026-05-08 22:43 | 41.61081 | 37.96570 | 33170 ft | 466 kts | 111° |
| 2026-05-08 22:44 | 41.58500 | 38.04510 | 33185 ft | 466 kts | 111° |
| 2026-05-08 22:44 | 41.55919 | 38.12457 | 33187 ft | 467 kts | 111° |
| 2026-05-08 22:45 | 41.53333 | 38.20405 | 33192 ft | 467 kts | 111° |
| 2026-05-08 22:45 | 41.50758 | 38.28288 | 33185 ft | 467 kts | 111° |
| 2026-05-08 22:46 | 41.48156 | 38.36220 | 33182 ft | 467 kts | 111° |
| 2026-05-08 22:46 | 41.45550 | 38.44147 | 33181 ft | 467 kts | 111° |
| 2026-05-08 22:47 | 41.42937 | 38.52072 | 33202 ft | 467 kts | 111° |
| 2026-05-08 22:47 | 41.40337 | 38.59932 | 33202 ft | 467 kts | 111° |
| 2026-05-08 22:48 | 41.37711 | 38.67839 | 33195 ft | 467 kts | 111° |
| 2026-05-08 22:48 | 41.35082 | 38.75736 | 33185 ft | 467 kts | 111° |
| 2026-05-08 22:49 | 41.32460 | 38.83635 | 33188 ft | 467 kts | 111° |
| 2026-05-08 22:49 | 41.28595 | 38.95506 | 33190 ft | 466 kts | 111° |
| 2026-05-08 22:50 | 41.26030 | 39.03361 | 33191 ft | 466 kts | 111° |
| 2026-05-08 22:50 | 41.23427 | 39.11257 | 33189 ft | 466 kts | 111° |
| 2026-05-08 22:51 | 41.20808 | 39.19137 | 33197 ft | 466 kts | 112° |
| 2026-05-08 22:51 | 41.18119 | 39.26903 | 33196 ft | 466 kts | 112° |
| 2026-05-08 22:52 | 41.15360 | 39.34690 | 33190 ft | 466 kts | 113° |
| 2026-05-08 22:52 | 41.12613 | 39.42475 | 33195 ft | 466 kts | 112° |
| 2026-05-08 22:53 | 41.09880 | 39.50267 | 33202 ft | 466 kts | 112° |
| 2026-05-08 22:53 | 41.07142 | 39.58056 | 33205 ft | 466 kts | 112° |
| 2026-05-08 22:54 | 41.04413 | 39.65777 | 33210 ft | 466 kts | 113° |
| 2026-05-08 22:54 | 41.01653 | 39.73548 | 33214 ft | 466 kts | 112° |
| 2026-05-08 22:55 | 40.98903 | 39.81312 | 33214 ft | 466 kts | 112° |
| 2026-05-08 22:55 | 40.96202 | 39.89095 | 33211 ft | 466 kts | 112° |
| 2026-05-08 22:56 | 40.93528 | 39.96905 | 33218 ft | 466 kts | 111° |
| 2026-05-08 22:56 | 40.90862 | 40.04649 | 33215 ft | 465 kts | 112° |
| 2026-05-08 22:57 | 40.88162 | 40.12417 | 33218 ft | 465 kts | 112° |
| 2026-05-08 22:57 | 40.85450 | 40.20180 | 33214 ft | 465 kts | 112° |
| 2026-05-08 22:58 | 40.82733 | 40.27931 | 33235 ft | 465 kts | 112° |
| 2026-05-08 22:58 | 40.80016 | 40.35686 | 33237 ft | 465 kts | 112° |
| 2026-05-08 22:59 | 40.77317 | 40.43376 | 33235 ft | 465 kts | 112° |
| 2026-05-08 22:59 | 40.74586 | 40.51111 | 33247 ft | 465 kts | 112° |
| 2026-05-08 23:00 | 40.71851 | 40.58844 | 33238 ft | 465 kts | 112° |
| 2026-05-08 23:00 | 40.69114 | 40.66580 | 33251 ft | 466 kts | 112° |
| 2026-05-08 23:01 | 40.66391 | 40.74245 | 33245 ft | 465 kts | 112° |
| 2026-05-08 23:01 | 40.63642 | 40.81966 | 33255 ft | 465 kts | 112° |
| 2026-05-08 23:02 | 40.60883 | 40.89671 | 33260 ft | 465 kts | 112° |
| 2026-05-08 23:02 | 40.58118 | 40.97372 | 33266 ft | 465 kts | 112° |
| 2026-05-08 23:03 | 40.55375 | 41.05013 | 33271 ft | 465 kts | 112° |
| 2026-05-08 23:03 | 40.52617 | 41.12696 | 33279 ft | 465 kts | 112° |
| 2026-05-08 23:04 | 40.49847 | 41.20375 | 33278 ft | 465 kts | 112° |
| 2026-05-08 23:04 | 40.47073 | 41.28036 | 33277 ft | 465 kts | 112° |
| 2026-05-08 23:05 | 40.44289 | 41.35697 | 33282 ft | 465 kts | 113° |
| 2026-05-08 23:05 | 40.41524 | 41.43296 | 33283 ft | 465 kts | 113° |
| 2026-05-08 23:06 | 40.38731 | 41.50941 | 33285 ft | 465 kts | 113° |
| 2026-05-08 23:06 | 40.35934 | 41.58578 | 33297 ft | 464 kts | 113° |
| 2026-05-08 23:07 | 40.33157 | 41.66160 | 33313 ft | 464 kts | 113° |
| 2026-05-08 23:07 | 40.30366 | 41.73771 | 33304 ft | 463 kts | 113° |
| 2026-05-08 23:08 | 40.27566 | 41.81361 | 33310 ft | 463 kts | 113° |
| 2026-05-08 23:08 | 40.24764 | 41.88946 | 33300 ft | 463 kts | 113° |
| 2026-05-08 23:09 | 40.21971 | 41.96470 | 33301 ft | 463 kts | 113° |
| 2026-05-08 23:09 | 40.19157 | 42.04039 | 33295 ft | 463 kts | 113° |
| 2026-05-08 23:10 | 40.16341 | 42.11600 | 33293 ft | 463 kts | 113° |
| 2026-05-08 23:10 | 40.14930 | 42.15384 | 33169 ft | 463 kts | 113° |
| 2026-05-08 23:10 | 40.13521 | 42.19160 | 32896 ft | 462 kts | 113° |
| 2026-05-08 23:11 | 40.12586 | 42.21663 | 32719 ft | 462 kts | 113° |
| 2026-05-08 23:11 | 40.11180 | 42.25420 | 32293 ft | 459 kts | 114° |
| 2026-05-08 23:11 | 40.09322 | 42.30363 | 31575 ft | 456 kts | 114° |
| 2026-05-08 23:11 | 40.07926 | 42.34073 | 31039 ft | 455 kts | 113° |
| 2026-05-08 23:12 | 40.06555 | 42.37790 | 30475 ft | 453 kts | 110° |
| 2026-05-08 23:12 | 40.05535 | 42.41645 | 29865 ft | 447 kts | 101° |
| 2026-05-08 23:12 | 40.05114 | 42.44255 | 29524 ft | 441 kts | 95° |
| 2026-05-08 23:12 | 40.04849 | 42.48208 | 28992 ft | 433 kts | 86° |
| 2026-05-08 23:13 | 40.04998 | 42.52091 | 28466 ft | 426 kts | 81° |
| 2026-05-08 23:13 | 40.05246 | 42.55935 | 27945 ft | 423 kts | 81° |
| 2026-05-08 23:13 | 40.05555 | 42.60981 | 27254 ft | 419 kts | 82° |
| 2026-05-08 23:13 | 40.05782 | 42.64764 | 26736 ft | 417 kts | 82° |
| 2026-05-08 23:14 | 40.06004 | 42.68517 | 26227 ft | 414 kts | 82° |
| 2026-05-08 23:14 | 40.06152 | 42.70997 | 25886 ft | 413 kts | 82° |
| 2026-05-08 23:14 | 40.06377 | 42.74721 | 25378 ft | 411 kts | 82° |
| 2026-05-08 23:14 | 40.06602 | 42.78432 | 24873 ft | 409 kts | 82° |
| 2026-05-08 23:15 | 40.06824 | 42.82123 | 24380 ft | 407 kts | 82° |
| 2026-05-08 23:15 | 40.07042 | 42.85794 | 23883 ft | 406 kts | 82° |
| 2026-05-08 23:15 | 40.07255 | 42.89463 | 23346 ft | 403 kts | 83° |
| 2026-05-08 23:15 | 40.07537 | 42.94271 | 22716 ft | 400 kts | 83° |
| 2026-05-08 23:16 | 40.07680 | 42.96709 | 22404 ft | 398 kts | 83° |
| 2026-05-08 23:16 | 40.07887 | 43.00249 | 21946 ft | 395 kts | 83° |
| 2026-05-08 23:16 | 40.08093 | 43.03802 | 21497 ft | 391 kts | 83° |
| 2026-05-08 23:16 | 40.08296 | 43.07331 | 21055 ft | 388 kts | 83° |
| 2026-05-08 23:17 | 40.08497 | 43.10834 | 20607 ft | 385 kts | 83° |
| 2026-05-08 23:17 | 40.08697 | 43.14303 | 20171 ft | 382 kts | 83° |
| 2026-05-08 23:17 | 40.08896 | 43.17748 | 19720 ft | 379 kts | 83° |
| 2026-05-08 23:17 | 40.09090 | 43.21169 | 19288 ft | 377 kts | 83° |
| 2026-05-08 23:18 | 40.09283 | 43.24568 | 18828 ft | 374 kts | 83° |
| 2026-05-08 23:18 | 40.09471 | 43.27910 | 18340 ft | 373 kts | 83° |
| 2026-05-08 23:18 | 40.09660 | 43.31315 | 17862 ft | 370 kts | 83° |
| 2026-05-08 23:18 | 40.09841 | 43.34608 | 17388 ft | 367 kts | 83° |
| 2026-05-08 23:19 | 40.10024 | 43.37917 | 16928 ft | 364 kts | 83° |
| 2026-05-08 23:19 | 40.10205 | 43.41201 | 16443 ft | 361 kts | 84° |
| 2026-05-08 23:19 | 40.10382 | 43.44460 | 15974 ft | 358 kts | 84° |
| 2026-05-08 23:19 | 40.10556 | 43.47695 | 15500 ft | 356 kts | 84° |
| 2026-05-08 23:20 | 40.10728 | 43.50910 | 15024 ft | 354 kts | 84° |
| 2026-05-08 23:20 | 40.10899 | 43.54080 | 14800 ft | 344 kts | 84° |
| 2026-05-08 23:20 | 40.11060 | 43.57105 | 14677 ft | 332 kts | 84° |
| 2026-05-08 23:20 | 40.11216 | 43.60064 | 14547 ft | 322 kts | 84° |
| 2026-05-08 23:21 | 40.11367 | 43.62949 | 14303 ft | 315 kts | 84° |
| 2026-05-08 23:21 | 40.11623 | 43.65757 | 14232 ft | 311 kts | 75° |
| 2026-05-08 23:21 | 40.12308 | 43.68436 | 13874 ft | 314 kts | 63° |
| 2026-05-08 23:21 | 40.13312 | 43.70992 | 13394 ft | 313 kts | 60° |
| 2026-05-08 23:22 | 40.14290 | 43.73444 | 13109 ft | 294 kts | 60° |
| 2026-05-08 23:22 | 40.15163 | 43.75803 | 12563 ft | 285 kts | 68° |
| 2026-05-08 23:22 | 40.15651 | 43.78300 | 11907 ft | 283 kts | 82° |
| 2026-05-08 23:22 | 40.15700 | 43.80821 | 11331 ft | 279 kts | 92° |
| 2026-05-08 23:23 | 40.15577 | 43.83363 | 10925 ft | 282 kts | 92° |
| 2026-05-08 23:23 | 40.15466 | 43.85918 | 10621 ft | 280 kts | 92° |
| 2026-05-08 23:23 | 40.15358 | 43.88464 | 10258 ft | 280 kts | 92° |
| 2026-05-08 23:23 | 40.15251 | 43.90988 | 9956 ft | 277 kts | 92° |
| 2026-05-08 23:24 | 40.15144 | 43.93478 | 9394 ft | 271 kts | 92° |
| 2026-05-08 23:24 | 40.15037 | 43.95909 | 9002 ft | 268 kts | 92° |
| 2026-05-08 23:24 | 40.14931 | 43.98286 | 8624 ft | 255 kts | 92° |
| 2026-05-08 23:24 | 40.14800 | 44.00525 | 8298 ft | 241 kts | 99° |
| 2026-05-08 23:25 | 40.14535 | 44.02596 | 7986 ft | 228 kts | 94° |
| 2026-05-08 23:25 | 40.14478 | 44.04603 | 7688 ft | 215 kts | 89° |
| 2026-05-08 23:25 | 40.14491 | 44.06507 | 7441 ft | 206 kts | 88° |
| 2026-05-08 23:25 | 40.14509 | 44.08365 | 7157 ft | 202 kts | 88° |
| 2026-05-08 23:26 | 40.14524 | 44.10188 | 6896 ft | 199 kts | 89° |
| 2026-05-08 23:26 | 40.14539 | 44.11983 | 6642 ft | 197 kts | 89° |
| 2026-05-08 23:26 | 40.14553 | 44.13738 | 6388 ft | 191 kts | 88° |
| 2026-05-08 23:26 | 40.14566 | 44.15451 | 6125 ft | 186 kts | 88° |
| 2026-05-08 23:27 | 40.14579 | 44.17096 | 5882 ft | 181 kts | 88° |
| 2026-05-08 23:27 | 40.14591 | 44.18716 | 5642 ft | 175 kts | 89° |
| 2026-05-08 23:27 | 40.14602 | 44.20267 | 5412 ft | 166 kts | 88° |
| 2026-05-08 23:27 | 40.14613 | 44.21739 | 5188 ft | 158 kts | 89° |
| 2026-05-08 23:28 | 40.14623 | 44.23128 | 5027 ft | 146 kts | 89° |
| 2026-05-08 23:28 | 40.14632 | 44.24427 | 4801 ft | 140 kts | 88° |
| 2026-05-08 23:28 | 40.14640 | 44.25691 | 4621 ft | 141 kts | 89° |
| 2026-05-08 23:28 | 40.14649 | 44.26997 | 4425 ft | 145 kts | 89° |
| 2026-05-08 23:29 | 40.14658 | 44.28312 | 4235 ft | 145 kts | 89° |
| 2026-05-08 23:29 | 40.14667 | 44.29613 | 4044 ft | 145 kts | 89° |
| 2026-05-08 23:29 | 40.14675 | 44.30928 | 3861 ft | 144 kts | 89° |
| 2026-05-08 23:29 | 40.14692 | 44.32243 | 3633 ft | 144 kts | 88° |
| 2026-05-08 23:30 | 40.14697 | 44.33546 | 3405 ft | 143 kts | 89° |
| 2026-05-08 23:30 | 40.14705 | 44.34837 | 3250 ft | 142 kts | 87° |
| 2026-05-08 23:30 | 40.14715 | 44.36111 | 3053 ft | 139 kts | 88° |
| 2026-05-08 23:30 | 40.14722 | 44.37368 | 2867 ft | 138 kts | 88° |
| 2026-05-08 23:31 | 40.14729 | 44.38526 | 2831 ft | 108 kts | 89° |
| 2026-05-08 23:31 | 40.14735 | 44.39286 | 2829 ft | 59 kts | 90° |
| 2026-05-08 23:31 | 40.14736 | 44.39632 | 2832 ft | 30 kts | 89° |
| 2026-05-08 23:31 | 40.14738 | 44.39898 | 2835 ft | 29 kts | 89° |
| 2026-05-08 23:32 | 40.14823 | 44.40025 | 2837 ft | 17 kts | 358° |
| 2026-05-08 23:32 | 40.14924 | 44.40032 | 2837 ft | 8 kts | 1° |
| 2026-05-08 23:32 | 40.14955 | 44.40033 | 2837 ft | 5 kts | 1° |
| 2026-05-08 23:32 | 40.14986 | 44.40060 | 2837 ft | 6 kts | 64° |
| 2026-05-08 23:33 | 40.14986 | 44.40120 | 2838 ft | 8 kts | 89° |
| 2026-05-08 23:33 | 40.15025 | 44.40146 | 2836 ft | 8 kts | 355° |
| 2026-05-08 23:33 | 40.15087 | 44.40145 | 2837 ft | 8 kts | 359° |
| 2026-05-08 23:33 | 40.15100 | 44.40145 | 2837 ft | 1 kts | 359° |
| 2026-05-08 23:34 | 40.15102 | 44.40145 | 2837 ft | 0 kts | 359° |